createdAt,value
2018-02-24T00:01:16.158Z,33.80
2018-02-24T00:03:44.379Z,35.00
2018-02-24T00:06:12.768Z,33.70
2018-02-24T00:08:41.044Z,36.50
2018-02-24T00:11:09.302Z,32.77
2018-02-24T00:13:37.607Z,32.00
2018-02-24T00:16:05.920Z,36.13
2018-02-24T00:18:34.196Z,36.70
2018-02-24T00:21:02.446Z,26.53
2018-02-24T00:23:30.708Z,38.73
2018-02-24T00:25:58.946Z,34.07
2018-02-24T00:28:27.192Z,32.47
2018-02-24T00:30:55.448Z,30.70
2018-02-24T00:33:23.710Z,33.53
2018-02-24T00:35:51.965Z,34.40
2018-02-24T00:38:20.247Z,36.40
2018-02-24T00:40:48.535Z,23.70
2018-02-24T00:43:16.786Z,34.60
2018-02-24T00:45:45.025Z,32.03
2018-02-24T00:48:13.299Z,32.13
2018-02-24T00:50:41.527Z,31.70
2018-02-24T00:53:09.780Z,36.90
2018-02-24T00:55:38.029Z,35.17
2018-02-24T00:58:06.305Z,33.13
2018-02-24T01:00:34.579Z,34.40
2018-02-24T01:03:02.833Z,35.90
2018-02-24T01:05:31.108Z,32.67
2018-02-24T01:07:59.372Z,31.40
2018-02-24T01:10:27.747Z,34.17
2018-02-24T01:12:55.999Z,37.43
2018-02-24T01:15:24.315Z,35.97
2018-02-24T01:17:52.593Z,37.17
2018-02-24T01:20:20.863Z,42.30
2018-02-24T01:22:49.117Z,37.23
2018-02-24T01:25:17.365Z,35.80
2018-02-24T01:27:45.617Z,33.27
2018-02-24T01:30:13.840Z,33.73
2018-02-24T01:32:42.408Z,35.20
2018-02-24T01:35:10.635Z,36.50
2018-02-24T01:37:38.876Z,33.73
2018-02-24T01:40:07.169Z,35.13
2018-02-24T01:42:35.417Z,35.30
2018-02-24T01:45:03.703Z,35.47
2018-02-24T01:47:31.975Z,38.50
2018-02-24T01:50:00.244Z,34.50
2018-02-24T01:52:28.570Z,37.00
2018-02-24T01:54:56.860Z,30.17
2018-02-24T01:57:25.175Z,34.67
2018-02-24T01:59:53.412Z,39.73
2018-02-24T02:02:21.739Z,33.67
2018-02-24T02:04:50.109Z,34.57
2018-02-24T02:07:18.495Z,31.33
2018-02-24T02:09:46.759Z,36.90
2018-02-24T02:12:15.053Z,38.10
2018-02-24T02:14:43.391Z,35.07
2018-02-24T02:17:11.624Z,35.17
2018-02-24T02:19:39.910Z,36.83
2018-02-24T02:22:08.189Z,37.47
2018-02-24T02:24:36.485Z,35.13
2018-02-24T02:27:04.733Z,33.57
2018-02-24T02:29:33.017Z,33.40
2018-02-24T02:32:01.294Z,36.30
2018-02-24T02:34:29.548Z,38.13
2018-02-24T02:36:57.861Z,34.20
2018-02-24T02:39:26.124Z,34.47
2018-02-24T02:41:54.517Z,36.73
2018-02-24T02:44:22.799Z,35.87
2018-02-24T02:46:51.074Z,37.13
2018-02-24T02:49:19.346Z,35.40
2018-02-24T02:51:47.708Z,36.17
2018-02-24T02:54:16.014Z,34.50
2018-02-24T02:56:44.500Z,34.97
2018-02-24T02:59:12.761Z,37.80
2018-02-24T03:01:41.034Z,35.20
2018-02-24T03:04:09.332Z,40.23
2018-02-24T03:06:37.569Z,37.47
2018-02-24T03:09:05.859Z,37.50
2018-02-24T03:11:34.130Z,36.73
2018-02-24T03:14:02.420Z,41.13
2018-02-24T03:16:30.663Z,43.50
2018-02-24T03:18:58.910Z,36.33
2018-02-24T03:21:27.191Z,39.50
2018-02-24T03:23:56.618Z,39.00
2018-02-24T03:26:24.902Z,43.63
2018-02-24T03:28:53.169Z,37.53
2018-02-24T03:31:21.469Z,34.97
2018-02-24T03:33:49.725Z,39.23
2018-02-24T03:36:17.965Z,39.77
2018-02-24T03:38:46.222Z,34.77
2018-02-24T03:41:14.495Z,36.80
2018-02-24T03:43:42.734Z,41.10
2018-02-24T03:46:20.884Z,37.73
2018-02-24T03:48:49.172Z,32.50
2018-02-24T03:51:17.389Z,43.20
2018-02-24T03:53:45.627Z,44.00
2018-02-24T03:56:13.895Z,42.27
2018-02-24T03:58:42.168Z,44.10
2018-02-24T04:01:10.594Z,39.57
2018-02-24T04:03:38.851Z,34.27
2018-02-24T04:06:07.133Z,42.20
2018-02-24T04:08:35.498Z,41.90
2018-02-24T04:11:03.766Z,41.30
2018-02-24T04:13:32.032Z,34.13
2018-02-24T04:16:00.347Z,40.47
2018-02-24T04:18:28.607Z,30.67
2018-02-24T04:20:56.831Z,39.33
2018-02-24T04:23:25.043Z,35.37
2018-02-24T04:25:53.300Z,39.13
2018-02-24T04:28:21.979Z,35.60
2018-02-24T04:30:50.228Z,35.10
2018-02-24T04:33:18.488Z,32.37
2018-02-24T04:35:46.731Z,35.80
2018-02-24T04:38:14.974Z,30.83
2018-02-24T04:40:43.212Z,35.47
2018-02-24T04:43:11.456Z,31.17
2018-02-24T04:45:39.797Z,38.27
2018-02-24T04:48:08.044Z,39.73
2018-02-24T04:50:36.308Z,37.73
2018-02-24T04:53:04.541Z,34.17
2018-02-24T04:55:32.838Z,35.03
2018-02-24T04:58:01.124Z,36.40
2018-02-24T05:00:29.388Z,33.97
2018-02-24T05:02:57.675Z,32.73
2018-02-24T05:05:25.904Z,32.77
2018-02-24T05:07:54.179Z,34.90
2018-02-24T05:10:22.418Z,27.23
2018-02-24T05:12:50.642Z,26.50
2018-02-24T05:15:18.947Z,36.07
2018-02-24T05:17:47.199Z,34.20
2018-02-24T05:20:15.438Z,32.00
2018-02-24T05:22:43.708Z,30.03
2018-02-24T05:25:11.950Z,34.90
2018-02-24T05:27:40.204Z,37.33
2018-02-24T05:30:08.438Z,33.97
2018-02-24T05:32:36.702Z,31.03
2018-02-24T05:35:04.960Z,29.70
2018-02-24T05:37:33.306Z,28.20
2018-02-24T05:40:01.606Z,33.67
2018-02-24T05:42:29.880Z,31.40
2018-02-24T05:44:58.130Z,30.90
2018-02-24T05:47:26.371Z,30.77
2018-02-24T05:49:54.624Z,26.97
2018-02-24T05:52:22.892Z,28.57
2018-02-24T05:54:51.138Z,30.67
2018-02-24T05:57:19.392Z,29.37
2018-02-24T05:59:47.609Z,34.67
2018-02-24T06:02:15.888Z,31.10
2018-02-24T06:04:44.105Z,29.07
2018-02-24T06:07:12.346Z,26.70
2018-02-24T06:09:40.598Z,17.77
2018-02-24T06:12:08.850Z,31.17
2018-02-24T06:14:37.128Z,29.53
2018-02-24T06:17:05.350Z,34.60
2018-02-24T06:19:33.680Z,28.07
2018-02-24T06:22:02.207Z,33.93
2018-02-24T06:24:30.434Z,32.33
2018-02-24T06:26:58.731Z,33.47
2018-02-24T06:29:26.987Z,31.27
2018-02-24T06:31:55.289Z,26.90
2018-02-24T06:34:23.574Z,19.27
2018-02-24T06:36:52.210Z,30.07
2018-02-24T06:39:20.445Z,30.33
2018-02-24T06:41:48.682Z,36.47
2018-02-24T06:44:16.958Z,32.07
2018-02-24T06:46:45.234Z,27.40
2018-02-24T06:49:13.544Z,27.43
2018-02-24T06:51:41.787Z,31.80
2018-02-24T06:54:10.224Z,27.30
2018-02-24T06:56:38.492Z,16.97
2018-02-24T06:59:06.729Z,30.20
2018-02-24T07:01:34.993Z,27.30
2018-02-24T07:04:03.243Z,29.70
2018-02-24T07:06:31.513Z,26.37
2018-02-24T07:08:59.762Z,31.20
2018-02-24T07:11:28.065Z,23.70
2018-02-24T07:13:56.376Z,15.73
2018-02-24T07:16:24.747Z,28.77
2018-02-24T07:18:53.041Z,30.80
2018-02-24T07:21:21.303Z,30.83
2018-02-24T07:23:49.592Z,37.00
2018-02-24T07:26:17.851Z,30.97
2018-02-24T07:28:46.136Z,20.97
2018-02-24T07:31:14.378Z,30.30
2018-02-24T07:33:42.598Z,32.30
2018-02-24T07:36:10.833Z,19.87
2018-02-24T07:38:39.151Z,22.47
2018-02-24T07:41:07.428Z,15.30
2018-02-24T07:43:35.791Z,25.90
2018-02-24T07:46:04.117Z,22.07
2018-02-24T07:48:32.416Z,24.27
2018-02-24T07:51:00.701Z,25.97
2018-02-24T07:53:29.032Z,20.10
2018-02-24T07:55:57.266Z,22.30
2018-02-24T07:58:25.539Z,18.60
2018-02-24T08:00:53.769Z,15.20
2018-02-24T08:03:22.040Z,23.67
2018-02-24T08:05:50.270Z,13.97
2018-02-24T08:08:18.527Z,23.70
2018-02-24T08:10:46.785Z,29.17
2018-02-24T08:13:14.996Z,24.50
2018-02-24T08:15:43.249Z,27.77
2018-02-24T08:18:11.492Z,26.37
2018-02-24T08:20:39.771Z,23.40
2018-02-24T08:23:08.038Z,12.33
2018-02-24T08:25:36.560Z,21.50
2018-02-24T08:28:04.829Z,24.40
2018-02-24T08:30:33.105Z,15.47
2018-02-24T08:33:01.431Z,20.53
2018-02-24T08:35:30.747Z,15.07
2018-02-24T08:37:59.029Z,22.67
2018-02-24T08:40:27.283Z,19.40
2018-02-24T08:42:55.582Z,24.90
2018-02-24T08:45:23.817Z,14.03
2018-02-24T08:47:52.097Z,19.17
2018-02-24T08:50:20.319Z,17.97
2018-02-24T08:52:48.587Z,21.97
2018-02-24T08:55:16.835Z,22.67
2018-02-24T08:57:45.076Z,17.23
2018-02-24T09:00:13.348Z,21.23
2018-02-24T09:02:41.585Z,21.97
2018-02-24T09:05:09.909Z,21.03
2018-02-24T09:07:38.123Z,23.97
2018-02-24T09:10:06.391Z,16.53
2018-02-24T09:12:34.650Z,16.23
2018-02-24T09:15:02.894Z,19.23
2018-02-24T09:17:31.188Z,10.30
2018-02-24T09:19:59.431Z,18.20
2018-02-24T09:22:27.701Z,26.00
2018-02-24T09:24:55.949Z,21.87
2018-02-24T09:27:24.246Z,19.27
2018-02-24T09:29:52.533Z,20.47
2018-02-24T09:32:20.813Z,24.73
2018-02-24T09:34:49.031Z,23.27
2018-02-24T09:37:17.303Z,19.70
2018-02-24T09:39:45.565Z,25.20
2018-02-24T09:42:13.813Z,16.60
2018-02-24T09:44:42.089Z,23.97
2018-02-24T09:47:10.366Z,23.57
2018-02-24T09:49:38.669Z,15.33
2018-02-24T09:52:06.961Z,14.40
2018-02-24T09:54:35.397Z,18.60
2018-02-24T09:57:03.724Z,15.13
2018-02-24T09:59:32.072Z,17.50
2018-02-24T10:02:00.421Z,21.53
2018-02-24T10:04:28.679Z,26.37
2018-02-24T10:06:56.994Z,11.40
2018-02-24T10:09:25.213Z,19.23
2018-02-24T10:11:53.479Z,27.63
2018-02-24T10:14:21.744Z,16.97
2018-02-24T10:16:50.045Z,11.10
2018-02-24T10:19:18.336Z,24.20
2018-02-24T10:21:46.579Z,15.27
2018-02-24T10:24:14.855Z,26.07
2018-02-24T10:26:43.142Z,21.33
2018-02-24T10:29:11.602Z,19.17
2018-02-24T10:31:39.936Z,15.77
2018-02-24T10:34:08.154Z,19.53
2018-02-24T10:36:36.443Z,22.33
2018-02-24T10:39:04.662Z,20.87
2018-02-24T10:41:33.093Z,14.90
2018-02-24T10:44:01.317Z,11.77
2018-02-24T10:46:29.644Z,19.30
2018-02-24T10:49:09.809Z,19.30
2018-02-24T10:51:38.086Z,20.63
2018-02-24T10:54:06.325Z,12.13
2018-02-24T10:56:34.581Z,19.30
2018-02-24T10:59:02.867Z,21.40
2018-02-24T11:01:31.106Z,15.70
2018-02-24T11:03:59.381Z,13.47
2018-02-24T11:06:27.613Z,16.90
2018-02-24T11:08:55.892Z,20.03
2018-02-24T11:11:24.151Z,18.27
2018-02-24T11:13:52.386Z,21.80
2018-02-24T11:16:20.640Z,11.83
2018-02-24T11:18:48.864Z,12.00
2018-02-24T11:21:17.103Z,13.00
2018-02-24T11:23:45.335Z,10.30
2018-02-24T11:26:13.620Z,27.73
2018-02-24T11:28:41.842Z,15.50
2018-02-24T11:31:10.066Z,19.30
2018-02-24T11:33:38.332Z,26.60
2018-02-24T11:36:06.570Z,18.93
2018-02-24T11:38:34.884Z,19.33
2018-02-24T11:41:03.104Z,16.23
2018-02-24T11:43:31.401Z,20.23
2018-02-24T11:45:59.650Z,15.00
2018-02-24T11:48:27.876Z,17.20
2018-02-24T11:50:56.119Z,16.90
2018-02-24T11:53:24.344Z,18.60
2018-02-24T11:55:52.641Z,16.37
2018-02-24T11:58:20.894Z,11.57
2018-02-24T12:00:49.165Z,14.53
2018-02-24T12:03:17.478Z,20.87
2018-02-24T12:05:45.702Z,13.77
2018-02-24T12:08:14.008Z,17.03
2018-02-24T12:10:42.253Z,19.17
2018-02-24T12:13:10.496Z,18.13
2018-02-24T12:15:38.762Z,12.70
2018-02-24T12:18:07.043Z,10.23
2018-02-24T12:20:35.311Z,16.47
2018-02-24T12:23:03.593Z,11.83
2018-02-24T12:25:31.916Z,10.70
2018-02-24T12:28:00.180Z,14.17
2018-02-24T12:30:28.504Z,14.70
2018-02-24T12:32:56.737Z,12.23
2018-02-24T12:35:25.034Z,15.20
2018-02-24T12:37:53.293Z,12.83
2018-02-24T12:40:21.633Z,16.83
2018-02-24T12:42:49.857Z,12.83
2018-02-24T12:45:18.219Z,15.60
2018-02-24T12:47:46.456Z,17.60
2018-02-24T12:50:14.730Z,18.33
2018-02-24T12:52:42.948Z,17.60
2018-02-24T12:55:11.218Z,13.37
2018-02-24T12:57:39.475Z,11.97
2018-02-24T13:00:07.736Z,13.67
2018-02-24T13:02:35.968Z,11.87
2018-02-24T13:05:04.225Z,12.83
2018-02-24T13:07:32.497Z,14.50
2018-02-24T13:10:00.717Z,8.67
2018-02-24T13:12:28.933Z,9.97
2018-02-24T13:14:57.192Z,17.70
2018-02-24T13:17:25.418Z,15.20
2018-02-24T13:19:53.658Z,15.77
2018-02-24T13:22:21.903Z,11.80
2018-02-24T13:24:50.202Z,12.27
2018-02-24T13:27:18.450Z,13.47
2018-02-24T13:29:46.717Z,13.93
2018-02-24T13:32:14.938Z,12.73
2018-02-24T13:34:43.163Z,13.90
2018-02-24T13:37:11.433Z,11.97
2018-02-24T13:39:39.706Z,13.97
2018-02-24T13:42:08.011Z,10.80
2018-02-24T13:44:36.282Z,11.13
2018-02-24T13:47:04.546Z,12.10
2018-02-24T13:49:32.800Z,11.60
2018-02-24T13:52:01.028Z,14.60
2018-02-24T13:54:29.356Z,21.53
2018-02-24T13:56:57.596Z,11.03
2018-02-24T13:59:25.889Z,13.47
2018-02-24T14:01:54.114Z,10.10
2018-02-24T14:04:22.365Z,15.23
2018-02-24T14:06:50.599Z,6.70
2018-02-24T14:09:19.003Z,10.80
2018-02-24T14:11:47.275Z,11.30
2018-02-24T14:14:15.513Z,12.27
2018-02-24T14:16:43.761Z,11.67
2018-02-24T14:19:12.001Z,7.53
2018-02-24T14:21:40.252Z,8.93
2018-02-24T14:24:08.507Z,11.50
2018-02-24T14:26:37.237Z,12.60
2018-02-24T14:29:05.467Z,6.50
2018-02-24T14:31:33.719Z,13.63
2018-02-24T14:34:01.930Z,16.97
2018-02-24T14:36:30.176Z,7.30
2018-02-24T14:38:58.419Z,12.40
2018-02-24T14:41:26.679Z,8.77
2018-02-24T14:43:54.935Z,9.90
2018-02-24T14:46:23.149Z,9.23
2018-02-24T14:48:51.397Z,8.83
2018-02-24T14:51:19.618Z,5.00
2018-02-24T14:53:47.926Z,16.97
2018-02-24T14:56:16.151Z,14.23
2018-02-24T14:58:44.355Z,9.47
2018-02-24T15:01:12.626Z,16.93
2018-02-24T15:03:40.868Z,8.03
2018-02-24T15:06:09.204Z,13.43
2018-02-24T15:08:37.446Z,5.83
2018-02-24T15:11:05.677Z,6.97
2018-02-24T15:13:33.966Z,8.63
2018-02-24T15:16:02.185Z,9.87
2018-02-24T15:18:30.399Z,8.53
2018-02-24T15:20:58.632Z,10.27
2018-02-24T15:23:26.904Z,7.00
2018-02-24T15:25:55.131Z,9.73
2018-02-24T15:28:23.450Z,9.90
2018-02-24T15:30:51.673Z,8.23
2018-02-24T15:33:19.917Z,6.43
2018-02-24T15:35:48.161Z,14.90
2018-02-24T15:38:16.453Z,7.90
2018-02-24T15:40:44.719Z,10.60
2018-02-24T15:43:12.954Z,8.13
2018-02-24T15:45:41.267Z,11.80
2018-02-24T15:48:09.479Z,14.43
2018-02-24T15:50:37.762Z,13.83
2018-02-24T15:53:06.030Z,10.60
2018-02-24T15:55:34.272Z,12.67
2018-02-24T15:58:02.554Z,10.10
2018-02-24T16:00:30.820Z,10.63
2018-02-24T16:02:59.069Z,11.43
2018-02-24T16:05:27.295Z,21.43
2018-02-24T16:07:55.729Z,15.47
2018-02-24T16:10:24.017Z,18.97
2018-02-24T16:12:52.278Z,15.50
2018-02-24T16:15:20.556Z,17.67
2018-02-24T16:17:48.797Z,18.63
2018-02-24T16:20:17.056Z,14.03
2018-02-24T16:22:45.338Z,15.33
2018-02-24T16:25:13.612Z,21.50
2018-02-24T16:27:41.850Z,18.67
2018-02-24T16:30:10.183Z,21.40
2018-02-24T16:32:38.735Z,26.23
2018-02-24T16:35:07.004Z,22.33
2018-02-24T16:37:39.859Z,25.80
2018-02-24T16:40:08.191Z,28.87
2018-02-24T16:42:36.640Z,21.37
2018-02-24T16:45:04.923Z,17.93
2018-02-24T16:47:33.235Z,22.60
2018-02-24T16:50:01.516Z,16.57
2018-02-24T16:52:29.808Z,8.87
2018-02-24T16:54:58.115Z,20.30
2018-02-24T16:57:26.362Z,19.10
2018-02-24T16:59:54.640Z,18.03
2018-02-24T17:02:22.914Z,20.30
2018-02-24T17:04:51.610Z,16.27
2018-02-24T17:07:19.888Z,20.17
2018-02-24T17:09:48.189Z,18.97
2018-02-24T17:12:22.483Z,16.87
2018-02-24T17:14:50.792Z,19.33
2018-02-24T17:17:19.109Z,18.27
2018-02-24T17:19:47.369Z,19.10
2018-02-24T17:22:15.695Z,8.40
2018-02-24T17:24:43.981Z,14.33
2018-02-24T17:27:12.245Z,16.57
2018-02-24T17:29:40.570Z,19.20
2018-02-24T17:32:08.888Z,13.57
2018-02-24T17:34:37.374Z,12.13
2018-02-24T17:37:05.678Z,8.13
2018-02-24T17:39:33.965Z,14.10
2018-02-24T17:42:02.219Z,16.23
2018-02-24T17:44:30.544Z,12.63
2018-02-24T17:46:58.886Z,15.17
2018-02-24T17:49:27.165Z,14.17
2018-02-24T17:51:55.438Z,19.07
2018-02-24T17:54:23.725Z,15.00
2018-02-24T17:56:52.061Z,14.17
2018-02-24T17:59:20.332Z,12.60
2018-02-24T18:01:48.620Z,16.17
2018-02-24T18:04:16.894Z,11.00
2018-02-24T18:06:45.174Z,20.23
2018-02-24T18:09:18.302Z,11.27
2018-02-24T18:11:47.393Z,18.70
2018-02-24T18:14:15.675Z,15.10
2018-02-24T18:16:47.432Z,13.23
2018-02-24T18:19:18.671Z,16.20
2018-02-24T18:21:46.957Z,14.03
2018-02-24T18:24:18.601Z,13.87
2018-02-24T18:26:47.746Z,6.27
2018-02-24T18:29:16.060Z,15.60
2018-02-24T18:31:44.423Z,11.60
2018-02-24T18:34:18.515Z,12.33
2018-02-24T18:36:46.906Z,11.43
2018-02-24T18:39:15.181Z,13.73
2018-02-24T18:41:45.360Z,14.93
2018-02-24T18:44:13.776Z,5.97
2018-02-24T18:46:42.101Z,14.43
2018-02-24T18:49:10.463Z,13.60
2018-02-24T18:51:38.756Z,9.77
2018-02-24T18:54:07.044Z,11.00
2018-02-24T18:56:35.341Z,13.27
2018-02-24T18:59:03.698Z,9.50
2018-02-24T19:01:32.005Z,11.70
2018-02-24T19:04:00.309Z,7.70
2018-02-24T19:06:28.617Z,9.30
2018-02-24T19:08:56.898Z,15.10
2018-02-24T19:11:25.751Z,6.20
2018-02-24T19:13:54.041Z,6.17
2018-02-24T19:16:22.407Z,9.23
2018-02-24T19:18:50.747Z,9.83
2018-02-24T19:21:19.009Z,16.87
2018-02-24T19:23:48.649Z,18.20
2018-02-24T19:26:20.311Z,15.20
2018-02-24T19:28:49.577Z,13.50
2018-02-24T19:31:17.865Z,10.57
2018-02-24T19:33:46.175Z,8.10
2018-02-24T19:36:20.219Z,8.40
2018-02-24T19:38:48.659Z,6.33
2018-02-24T19:43:56.053Z,9.57
2018-02-24T19:46:24.388Z,6.10
2018-02-24T19:48:52.700Z,9.70
2018-02-24T19:51:21.450Z,4.37
2018-02-24T19:53:49.847Z,6.47
2018-02-24T19:56:19.202Z,3.80
2018-02-24T19:58:47.520Z,2.43
2018-02-24T20:01:19.283Z,9.43
2018-02-24T20:03:47.635Z,8.43
2018-02-24T20:06:15.935Z,8.97
2018-02-24T20:08:44.284Z,6.90
2018-02-24T20:11:12.655Z,7.87
2018-02-24T20:13:40.972Z,12.53
2018-02-24T20:16:09.295Z,6.07
2018-02-24T20:18:37.684Z,6.97
2018-02-24T20:21:06.148Z,2.87
2018-02-24T20:23:34.423Z,15.10
2018-02-24T20:26:02.879Z,6.63
2018-02-24T20:28:31.197Z,11.80
2018-02-24T20:30:59.512Z,5.60
2018-02-24T20:33:27.839Z,5.30
2018-02-24T20:35:56.186Z,7.00
2018-02-24T20:38:24.506Z,8.37
2018-02-24T20:40:52.822Z,5.87
2018-02-24T20:43:21.155Z,9.40
2018-02-24T20:45:49.447Z,9.57
2018-02-24T20:48:17.783Z,7.33
2018-02-24T20:50:46.063Z,9.27
2018-02-24T20:53:16.197Z,9.37
2018-02-24T20:55:44.554Z,11.37
2018-02-24T20:58:15.390Z,10.67
2018-02-24T21:00:43.674Z,16.23
2018-02-24T21:03:11.969Z,11.23
2018-02-24T21:05:41.099Z,8.63
2018-02-24T21:08:09.420Z,8.20
2018-02-24T21:10:37.827Z,6.93
2018-02-24T21:13:06.113Z,9.20
2018-02-24T21:15:34.446Z,8.37
2018-02-24T21:18:02.776Z,4.87
2018-02-24T21:20:31.124Z,7.50
2018-02-24T21:22:59.494Z,9.37
2018-02-24T21:25:27.776Z,4.87
2018-02-24T21:27:56.093Z,6.30
2018-02-24T21:30:24.364Z,5.53
2018-02-24T21:32:52.627Z,4.03
2018-02-24T21:35:20.872Z,5.10
2018-02-24T21:37:49.153Z,7.70
2018-02-24T21:40:19.315Z,5.67
2018-02-24T21:42:47.598Z,5.23
2018-02-24T21:45:15.902Z,6.07
2018-02-24T21:47:44.156Z,3.37
2018-02-24T21:50:19.080Z,4.77
2018-02-24T21:52:47.383Z,5.20
2018-02-24T21:55:15.653Z,2.80
2018-02-24T21:57:43.942Z,3.70
2018-02-24T22:00:12.183Z,3.63
2018-02-24T22:02:40.475Z,3.70
2018-02-24T22:05:08.723Z,3.80
2018-02-24T22:07:37.001Z,6.50
2018-02-24T22:10:05.246Z,7.73
2018-02-24T22:12:33.511Z,4.20
2018-02-24T22:15:01.739Z,6.90
2018-02-24T22:17:29.981Z,3.40
2018-02-24T22:19:58.253Z,6.27
2018-02-24T22:22:26.500Z,5.30
2018-02-24T22:24:54.780Z,4.97
2018-02-24T22:27:23.052Z,6.20
2018-02-24T22:29:51.309Z,3.03
2018-02-24T22:32:19.592Z,10.13
2018-02-24T22:34:47.862Z,3.80
2018-02-24T22:37:16.207Z,5.80
2018-02-24T22:39:44.448Z,10.63
2018-02-24T22:42:12.708Z,2.70
2018-02-24T22:44:40.956Z,6.30
2018-02-24T22:47:10.871Z,3.17
2018-02-24T22:49:39.208Z,5.10
2018-02-24T22:52:07.492Z,4.80
2018-02-24T22:54:35.872Z,7.87
2018-02-24T22:57:05.306Z,8.53
2018-02-24T22:59:33.778Z,8.67
2018-02-24T23:02:02.082Z,5.60
2018-02-24T23:04:30.375Z,7.33
2018-02-24T23:06:58.704Z,19.73
2018-02-24T23:09:27.022Z,9.03
2018-02-24T23:11:55.280Z,15.90
2018-02-24T23:14:23.601Z,14.40
2018-02-24T23:16:51.886Z,11.80
2018-02-24T23:19:20.242Z,12.67
2018-02-24T23:21:48.572Z,5.57
2018-02-24T23:24:25.274Z,8.23
2018-02-24T23:26:53.574Z,9.03
2018-02-24T23:29:21.866Z,19.43
2018-02-24T23:31:50.194Z,6.40
2018-02-24T23:34:19.424Z,6.93
2018-02-24T23:36:47.706Z,9.07
2018-02-24T23:39:17.564Z,10.50
2018-02-24T23:41:48.542Z,6.67
2018-02-24T23:44:16.812Z,7.30
2018-02-24T23:46:46.288Z,6.80
2018-02-24T23:49:15.090Z,9.07
2018-02-24T23:51:43.456Z,6.63
2018-02-24T23:54:11.777Z,4.20
2018-02-24T23:56:40.028Z,6.60
2018-02-24T23:59:08.394Z,3.00
